createdAt,value
2018-03-07T00:00:38.723Z,92.84
2018-03-07T00:01:38.688Z,92.80
2018-03-07T00:03:35.151Z,93.27
2018-03-07T00:04:35.155Z,93.46
2018-03-07T00:06:30.541Z,93.08
2018-03-07T00:07:30.553Z,93.08
2018-03-07T00:09:26.541Z,93.08
2018-03-07T00:10:26.506Z,92.89
2018-03-07T00:12:22.465Z,93.18
2018-03-07T00:13:22.955Z,93.46
2018-03-07T00:15:18.391Z,93.46
2018-03-07T00:16:18.381Z,93.27
2018-03-07T00:18:14.335Z,93.65
2018-03-07T00:19:14.308Z,93.75
2018-03-07T00:21:10.221Z,94.13
2018-03-07T00:22:10.218Z,94.22
2018-03-07T00:24:06.658Z,93.70
2018-03-07T00:25:06.153Z,93.70
2018-03-07T00:27:02.077Z,93.89
2018-03-07T00:28:02.585Z,94.08
2018-03-07T00:29:59.528Z,94.18
2018-03-07T00:30:58.034Z,93.99
2018-03-07T00:32:53.963Z,94.18
2018-03-07T00:33:53.954Z,94.18
2018-03-07T00:35:49.890Z,94.93
2018-03-07T00:36:49.909Z,95.03
2018-03-07T00:38:46.331Z,94.56
2018-03-07T00:39:45.825Z,93.89
2018-03-07T00:41:41.745Z,94.37
2018-03-07T00:42:41.732Z,94.08
2018-03-07T00:44:37.720Z,94.27
2018-03-07T00:45:37.689Z,94.27
2018-03-07T00:47:34.141Z,94.46
2018-03-07T00:48:33.620Z,94.93
2018-03-07T00:50:30.588Z,94.93
2018-03-07T00:51:29.581Z,95.12
2018-03-07T00:53:26.018Z,94.93
2018-03-07T00:54:25.610Z,94.56
2018-03-07T00:56:21.458Z,94.56
2018-03-07T00:57:21.445Z,95.12
2018-03-07T00:59:17.383Z,94.74
2018-03-07T01:00:17.381Z,95.12
2018-03-07T01:02:13.340Z,95.22
2018-03-07T01:03:13.310Z,94.93
2018-03-07T01:05:10.788Z,95.22
2018-03-07T01:06:09.260Z,95.32
2018-03-07T01:08:04.635Z,95.32
2018-03-07T01:09:03.718Z,95.60
2018-03-07T01:10:59.645Z,95.60
2018-03-07T01:12:00.157Z,95.51
2018-03-07T01:13:57.523Z,95.70
2018-03-07T01:14:56.091Z,96.08
2018-03-07T01:16:51.495Z,95.70
2018-03-07T01:17:51.494Z,95.70
2018-03-07T01:19:47.946Z,95.41
2018-03-07T01:20:47.409Z,95.60
2018-03-07T01:22:43.349Z,95.79
2018-03-07T01:23:43.355Z,95.32
2018-03-07T01:25:39.281Z,94.84
2018-03-07T01:26:39.295Z,94.74
2018-03-07T01:28:37.256Z,94.74
2018-03-07T01:29:37.190Z,94.56
2018-03-07T01:31:34.170Z,94.18
2018-03-07T01:32:33.152Z,94.08
2018-03-07T01:34:30.086Z,93.41
2018-03-07T01:35:29.085Z,93.23
2018-03-07T01:37:26.022Z,92.56
2018-03-07T01:38:25.023Z,92.37
2018-03-07T01:40:22.481Z,91.71
2018-03-07T01:41:21.470Z,91.71
2018-03-07T01:43:16.906Z,91.80
2018-03-07T01:44:16.901Z,91.61
2018-03-07T01:46:12.854Z,91.99
2018-03-07T01:47:12.823Z,92.08
2018-03-07T01:49:08.780Z,91.71
2018-03-07T01:50:08.710Z,91.71
2018-03-07T01:52:05.171Z,91.61
2018-03-07T01:53:04.665Z,91.80
2018-03-07T01:55:00.585Z,92.46
2018-03-07T01:56:00.587Z,92.37
2018-03-07T01:57:56.511Z,92.37
2018-03-07T01:58:56.511Z,92.46
2018-03-07T02:00:52.959Z,92.46
2018-03-07T02:01:52.439Z,92.46
2018-03-07T02:03:48.382Z,91.75
2018-03-07T02:04:48.386Z,92.04
2018-03-07T02:06:44.350Z,90.99
2018-03-07T02:07:44.315Z,91.38
2018-03-07T02:09:40.275Z,90.80
2018-03-07T02:10:40.755Z,90.05
2018-03-07T02:12:36.165Z,90.23
2018-03-07T02:13:36.159Z,89.76
2018-03-07T02:15:32.608Z,89.67
2018-03-07T02:16:32.091Z,89.47
2018-03-07T02:18:28.058Z,88.90
2018-03-07T02:19:28.027Z,89.00
2018-03-07T02:21:23.958Z,88.24
2018-03-07T02:22:23.937Z,88.05
2018-03-07T02:24:20.354Z,87.86
2018-03-07T02:25:19.842Z,88.05
2018-03-07T02:27:15.774Z,88.05
2018-03-07T02:28:15.780Z,87.95
2018-03-07T02:30:11.719Z,88.24
2018-03-07T02:31:11.709Z,88.05
2018-03-07T02:33:07.677Z,88.53
2018-03-07T02:34:07.635Z,88.71
2018-03-07T02:36:04.101Z,89.57
2018-03-07T02:37:03.574Z,89.28
2018-03-07T02:39:00.027Z,89.86
2018-03-07T02:39:59.470Z,89.67
2018-03-07T02:41:55.447Z,89.86
2018-03-07T02:42:55.422Z,89.57
2018-03-07T02:44:51.419Z,88.81
2018-03-07T02:45:51.901Z,89.28
2018-03-07T02:47:48.264Z,89.00
2018-03-07T02:48:47.845Z,88.43
2018-03-07T02:50:43.290Z,88.43
2018-03-07T02:51:43.768Z,88.24
2018-03-07T02:53:39.722Z,88.24
2018-03-07T02:54:39.184Z,88.71
2018-03-07T02:56:35.624Z,89.09
2018-03-07T02:57:35.144Z,89.67
2018-03-07T02:59:31.104Z,89.86
2018-03-07T03:00:31.624Z,89.67
2018-03-07T03:02:28.028Z,89.86
2018-03-07T03:03:27.523Z,90.33
2018-03-07T03:05:23.435Z,90.61
2018-03-07T03:06:22.922Z,90.80
2018-03-07T03:08:18.890Z,90.61
2018-03-07T03:09:19.353Z,90.90
2018-03-07T03:11:15.283Z,90.90
2018-03-07T03:12:15.758Z,90.71
2018-03-07T03:14:10.710Z,90.90
2018-03-07T03:15:11.229Z,90.80
2018-03-07T03:17:07.162Z,90.90
2018-03-07T03:18:06.620Z,91.09
2018-03-07T03:20:03.068Z,90.99
2018-03-07T03:21:02.548Z,90.80
2018-03-07T03:23:00.033Z,90.90
2018-03-07T03:23:58.504Z,90.23
2018-03-07T03:25:54.476Z,89.86
2018-03-07T03:26:54.458Z,88.53
2018-03-07T03:28:50.909Z,87.48
2018-03-07T03:29:50.375Z,87.57
2018-03-07T03:31:46.815Z,86.82
2018-03-07T03:32:46.818Z,86.05
2018-03-07T03:34:42.746Z,85.49
2018-03-07T03:35:42.252Z,84.91
2018-03-07T03:37:38.194Z,84.44
2018-03-07T03:38:39.674Z,84.58
2018-03-07T03:40:34.625Z,84.29
2018-03-07T03:41:34.098Z,84.77
2018-03-07T03:43:30.044Z,86.10
2018-03-07T03:44:30.035Z,86.82
2018-03-07T03:46:26.490Z,87.19
2018-03-07T03:47:25.978Z,87.01
2018-03-07T03:49:21.893Z,88.05
2018-03-07T03:50:21.894Z,88.24
2018-03-07T03:52:17.857Z,88.34
2018-03-07T03:53:17.818Z,88.43
2018-03-07T03:55:13.792Z,89.09
2018-03-07T03:56:14.277Z,89.57
2018-03-07T03:58:10.707Z,89.57
2018-03-07T03:59:09.676Z,89.57
2018-03-07T04:01:06.127Z,90.19
2018-03-07T04:02:06.133Z,90.85
2018-03-07T04:04:01.534Z,91.24
2018-03-07T04:05:01.543Z,90.95
2018-03-07T04:06:57.501Z,91.14
2018-03-07T04:07:57.453Z,90.85
2018-03-07T04:09:53.380Z,90.57
2018-03-07T04:10:53.391Z,90.76
2018-03-07T04:12:49.844Z,91.14
2018-03-07T04:13:49.320Z,90.95
2018-03-07T04:15:45.281Z,90.95
2018-03-07T04:16:45.248Z,90.95
2018-03-07T04:18:41.223Z,90.66
2018-03-07T04:19:41.155Z,91.00
2018-03-07T04:21:37.600Z,91.42
2018-03-07T04:22:37.120Z,91.19
2018-03-07T04:24:33.043Z,91.38
2018-03-07T04:25:33.582Z,91.42
2018-03-07T04:27:28.972Z,91.38
2018-03-07T04:28:28.957Z,91.47
2018-03-07T04:30:25.410Z,91.85
2018-03-07T04:31:24.896Z,92.04
2018-03-07T04:33:21.821Z,91.56
2018-03-07T04:34:20.822Z,91.19
2018-03-07T04:36:17.269Z,91.09
2018-03-07T04:37:16.737Z,91.28
2018-03-07T04:39:14.704Z,91.38
2018-03-07T04:40:15.194Z,90.81
2018-03-07T04:42:11.116Z,91.28
2018-03-07T04:43:10.605Z,91.00
2018-03-07T04:45:06.573Z,90.95
2018-03-07T04:46:06.525Z,90.05
2018-03-07T04:48:02.480Z,90.52
2018-03-07T04:49:02.511Z,89.76
2018-03-07T04:50:58.919Z,89.86
2018-03-07T04:51:58.408Z,90.24
2018-03-07T04:53:54.343Z,90.14
2018-03-07T04:54:54.850Z,90.14
2018-03-07T04:56:53.288Z,89.39
2018-03-07T04:57:52.366Z,89.58
2018-03-07T04:59:48.334Z,89.86
2018-03-07T05:00:48.293Z,88.91
2018-03-07T05:02:44.849Z,89.20
2018-03-07T05:03:44.231Z,88.72
2018-03-07T05:05:41.091Z,88.72
2018-03-07T05:06:40.659Z,88.62
2018-03-07T05:08:36.594Z,88.91
2018-03-07T05:09:36.062Z,88.53
2018-03-07T05:11:31.976Z,88.34
2018-03-07T05:12:32.002Z,88.62
2018-03-07T05:14:29.424Z,88.53
2018-03-07T05:15:29.435Z,88.72
2018-03-07T05:17:23.850Z,88.72
2018-03-07T05:18:23.850Z,88.53
2018-03-07T05:20:20.724Z,88.81
2018-03-07T05:21:19.774Z,89.10
2018-03-07T05:23:15.742Z,89.39
2018-03-07T05:24:15.694Z,89.20
2018-03-07T05:26:11.661Z,89.95
2018-03-07T05:27:11.642Z,90.14
2018-03-07T05:29:07.596Z,90.14
2018-03-07T05:30:07.576Z,90.62
2018-03-07T05:32:03.537Z,90.14
2018-03-07T05:33:04.020Z,89.76
2018-03-07T05:34:59.948Z,90.24
2018-03-07T05:35:59.441Z,90.33
2018-03-07T05:37:55.868Z,90.43
2018-03-07T05:38:55.370Z,90.52
2018-03-07T05:40:51.328Z,90.24
2018-03-07T05:41:51.306Z,90.24
2018-03-07T05:43:47.744Z,90.33
2018-03-07T05:44:47.234Z,90.33
2018-03-07T05:46:43.189Z,90.76
2018-03-07T05:47:43.172Z,90.67
2018-03-07T05:49:41.117Z,90.57
2018-03-07T05:50:41.625Z,90.67
2018-03-07T05:52:37.074Z,91.42
2018-03-07T05:53:37.066Z,91.24
2018-03-07T05:55:34.513Z,91.05
2018-03-07T05:56:33.012Z,91.33
2018-03-07T05:58:28.959Z,91.61
2018-03-07T05:59:28.897Z,91.61
2018-03-07T06:01:25.843Z,91.71
2018-03-07T06:02:25.347Z,91.61
2018-03-07T06:04:23.281Z,91.80
2018-03-07T06:05:23.281Z,91.80
2018-03-07T06:07:20.220Z,91.80
2018-03-07T06:08:19.726Z,91.99
2018-03-07T06:10:15.665Z,92.09
2018-03-07T06:11:15.638Z,92.47
2018-03-07T06:13:14.589Z,92.66
2018-03-07T06:14:13.584Z,92.18
2018-03-07T06:16:09.524Z,91.99
2018-03-07T06:17:09.505Z,92.09
2018-03-07T06:19:05.429Z,92.76
2018-03-07T06:20:05.405Z,92.85
2018-03-07T06:22:01.888Z,92.76
2018-03-07T06:23:01.864Z,92.76
2018-03-07T06:24:59.328Z,92.18
2018-03-07T06:25:59.798Z,92.09
2018-03-07T06:27:55.715Z,91.80
2018-03-07T06:28:55.181Z,91.99
2018-03-07T06:30:51.106Z,91.52
2018-03-07T06:31:51.642Z,91.42
2018-03-07T06:33:47.066Z,91.38
2018-03-07T06:34:47.078Z,91.19
2018-03-07T06:36:42.995Z,91.38
2018-03-07T06:37:43.007Z,91.19
2018-03-07T06:39:38.977Z,90.90
2018-03-07T06:40:38.927Z,91.00
2018-03-07T06:42:34.834Z,91.38
2018-03-07T06:43:34.853Z,91.47
2018-03-07T06:45:30.796Z,90.52
2018-03-07T06:46:31.300Z,90.81
2018-03-07T06:48:27.721Z,90.81
2018-03-07T06:49:27.226Z,90.81
2018-03-07T06:51:22.637Z,90.76
2018-03-07T06:52:22.624Z,90.76
2018-03-07T06:54:19.077Z,90.76
2018-03-07T06:55:18.586Z,90.81
2018-03-07T06:57:14.527Z,91.00
2018-03-07T06:58:15.020Z,90.43
2018-03-07T07:00:10.448Z,90.33
2018-03-07T07:01:10.429Z,90.33
2018-03-07T07:03:06.374Z,90.24
2018-03-07T07:04:06.867Z,89.67
2018-03-07T07:06:04.271Z,89.86
2018-03-07T07:07:04.276Z,89.67
2018-03-07T07:09:02.253Z,89.58
2018-03-07T07:10:02.726Z,89.39
2018-03-07T07:11:58.668Z,89.39
2018-03-07T07:12:58.114Z,89.39
2018-03-07T07:14:54.060Z,89.29
2018-03-07T07:15:54.564Z,89.39
2018-03-07T07:17:50.475Z,89.76
2018-03-07T07:18:49.948Z,88.53
2018-03-07T07:20:47.879Z,88.53
2018-03-07T07:21:47.871Z,88.43
2018-03-07T07:23:43.802Z,88.43
2018-03-07T07:24:44.319Z,88.48
2018-03-07T07:26:39.756Z,88.20
2018-03-07T07:27:40.235Z,88.01
2018-03-07T07:29:37.685Z,88.29
2018-03-07T07:30:37.647Z,87.82
2018-03-07T07:32:35.586Z,87.05
2018-03-07T07:33:35.580Z,87.34
2018-03-07T07:35:31.502Z,87.34
2018-03-07T07:36:31.524Z,86.96
2018-03-07T07:38:29.486Z,86.39
2018-03-07T07:39:29.421Z,87.34
2018-03-07T07:41:27.358Z,86.96
2018-03-07T07:42:27.358Z,86.96
2018-03-07T07:44:23.812Z,87.34
2018-03-07T07:45:23.264Z,87.15
2018-03-07T07:47:19.233Z,86.96
2018-03-07T07:48:19.196Z,87.15
2018-03-07T07:50:16.150Z,87.15
2018-03-07T07:51:15.166Z,87.15
2018-03-07T07:53:12.098Z,86.49
2018-03-07T07:54:11.070Z,86.87
2018-03-07T07:56:07.542Z,85.82
2018-03-07T07:57:07.513Z,85.82
2018-03-07T07:59:03.472Z,85.82
2018-03-07T08:00:02.886Z,86.11
2018-03-07T08:01:59.369Z,85.91
2018-03-07T08:02:58.825Z,86.11
2018-03-07T08:04:56.757Z,86.20
2018-03-07T08:05:56.801Z,85.82
2018-03-07T08:07:52.711Z,86.20
2018-03-07T08:08:52.676Z,86.01
2018-03-07T08:10:51.123Z,85.82
2018-03-07T08:11:50.600Z,86.11
2018-03-07T08:13:48.570Z,86.30
2018-03-07T08:14:48.542Z,86.20
2018-03-07T08:16:46.981Z,86.11
2018-03-07T08:17:46.467Z,85.91
2018-03-07T08:19:44.444Z,85.44
2018-03-07T08:20:44.382Z,85.77
2018-03-07T08:22:40.845Z,85.39
2018-03-07T08:23:40.316Z,85.68
2018-03-07T08:25:36.275Z,85.01
2018-03-07T08:26:36.764Z,85.11
2018-03-07T08:28:32.220Z,84.53
2018-03-07T08:29:32.175Z,84.25
2018-03-07T08:33:04.769Z,83.49
2018-03-07T08:34:04.765Z,83.49
2018-03-07T08:36:01.205Z,83.11
2018-03-07T08:37:00.668Z,82.92
2018-03-07T08:38:58.648Z,82.87
2018-03-07T08:39:58.571Z,82.39
2018-03-07T08:41:54.490Z,82.29
2018-03-07T08:42:54.490Z,81.63
2018-03-07T08:44:51.448Z,81.44
2018-03-07T08:45:50.432Z,81.54
2018-03-07T08:47:48.430Z,81.54
2018-03-07T08:48:48.372Z,81.63
2018-03-07T08:50:46.326Z,81.54
2018-03-07T08:51:46.820Z,81.25
2018-03-07T08:53:45.668Z,81.44
2018-03-07T08:54:44.740Z,81.38
2018-03-07T08:56:40.664Z,80.44
2018-03-07T08:57:40.149Z,80.34
2018-03-07T08:59:36.624Z,80.82
2018-03-07T09:00:36.128Z,80.53
2018-03-07T09:02:32.037Z,80.53
2018-03-07T09:03:32.555Z,80.44
2018-03-07T09:05:28.510Z,80.34
2018-03-07T09:06:28.015Z,80.34
2018-03-07T09:08:26.029Z,80.53
2018-03-07T09:09:26.039Z,80.34
2018-03-07T09:11:21.964Z,80.82
2018-03-07T09:12:21.963Z,80.44
2018-03-07T09:14:17.940Z,80.53
2018-03-07T09:15:17.900Z,80.53
2018-03-07T09:17:15.852Z,79.86
2018-03-07T09:18:15.826Z,79.58
2018-03-07T09:20:12.286Z,79.77
2018-03-07T09:21:11.751Z,79.11
2018-03-07T09:23:07.692Z,79.68
2018-03-07T09:24:07.679Z,79.49
2018-03-07T09:26:04.132Z,79.11
2018-03-07T09:27:03.623Z,79.58
2018-03-07T09:29:00.577Z,79.86
2018-03-07T09:30:00.082Z,79.86
2018-03-07T09:31:55.999Z,79.96
2018-03-07T09:32:55.504Z,80.34
2018-03-07T09:34:51.488Z,81.29
2018-03-07T09:35:51.960Z,81.29
2018-03-07T09:37:49.904Z,81.77
2018-03-07T09:38:49.358Z,81.96
2018-03-07T09:40:45.875Z,82.62
2018-03-07T09:41:45.312Z,82.91
2018-03-07T09:43:41.279Z,83.48
2018-03-07T09:44:41.256Z,83.48
2018-03-07T09:46:37.722Z,84.52
2018-03-07T09:47:37.188Z,85.10
2018-03-07T09:49:34.082Z,86.00
2018-03-07T09:50:33.698Z,86.10
2018-03-07T09:52:29.087Z,86.76
2018-03-07T09:53:29.065Z,87.43
2018-03-07T09:55:25.046Z,88.38
2018-03-07T09:56:25.068Z,88.28
2018-03-07T09:58:20.922Z,88.28
2018-03-07T09:59:22.400Z,88.47
2018-03-07T10:01:16.887Z,88.57
2018-03-07T10:02:16.892Z,88.76
2018-03-07T10:04:13.831Z,88.95
2018-03-07T10:05:12.820Z,88.85
2018-03-07T10:07:09.821Z,89.04
2018-03-07T10:08:09.327Z,89.71
2018-03-07T10:10:02.210Z,89.80
2018-03-07T10:11:02.188Z,89.80
2018-03-07T10:12:59.642Z,89.90
2018-03-07T10:13:58.139Z,89.90
2018-03-07T10:15:53.604Z,90.19
2018-03-07T10:16:52.559Z,90.75
2018-03-07T10:18:48.494Z,90.47
2018-03-07T10:19:48.506Z,90.47
2018-03-07T10:21:44.445Z,90.85
2018-03-07T10:22:46.005Z,90.75
2018-03-07T10:24:40.409Z,90.94
2018-03-07T10:25:40.344Z,90.85
2018-03-07T10:27:36.297Z,91.13
2018-03-07T10:28:36.361Z,91.61
2018-03-07T10:30:31.681Z,91.33
2018-03-07T10:31:30.725Z,91.33
2018-03-07T10:33:26.654Z,91.42
2018-03-07T10:34:26.689Z,91.13
2018-03-07T10:36:22.661Z,91.18
2018-03-07T10:37:22.622Z,91.08
2018-03-07T10:39:18.599Z,90.70
2018-03-07T10:40:18.585Z,90.23
2018-03-07T10:42:15.024Z,89.99
2018-03-07T10:43:14.530Z,89.04
2018-03-07T10:45:08.964Z,88.66
2018-03-07T10:46:08.966Z,88.18
2018-03-07T10:48:05.418Z,88.66
2018-03-07T10:49:04.918Z,88.66
2018-03-07T10:51:01.373Z,88.46
2018-03-07T10:52:00.868Z,88.46
2018-03-07T10:53:58.295Z,86.28
2018-03-07T10:54:56.780Z,86.28
2018-03-07T10:56:52.753Z,86.28
2018-03-07T10:57:52.705Z,86.66
2018-03-07T10:59:48.686Z,87.32
2018-03-07T11:00:48.656Z,87.04
2018-03-07T11:02:44.631Z,86.57
2018-03-07T11:03:44.585Z,85.99
2018-03-07T11:05:41.540Z,85.56
2018-03-07T11:06:40.566Z,85.37
2018-03-07T11:08:35.000Z,84.13
2018-03-07T11:09:35.516Z,83.47
2018-03-07T11:11:30.884Z,83.47
2018-03-07T11:12:30.920Z,83.09
2018-03-07T11:14:25.323Z,82.42
2018-03-07T11:15:25.332Z,82.14
2018-03-07T11:17:21.286Z,82.04
2018-03-07T11:18:21.822Z,81.85
2018-03-07T11:20:17.222Z,81.70
2018-03-07T11:21:17.208Z,81.56
2018-03-07T11:23:13.699Z,82.14
2018-03-07T11:24:13.150Z,82.90
2018-03-07T11:26:09.120Z,83.47
2018-03-07T11:27:09.108Z,83.09
2018-03-07T11:29:05.039Z,84.13
2018-03-07T11:30:05.577Z,83.94
2018-03-07T11:32:00.970Z,84.65
2018-03-07T11:33:00.941Z,84.17
2018-03-07T11:34:57.401Z,83.70
2018-03-07T11:35:56.876Z,82.18
2018-03-07T11:37:52.809Z,81.89
2018-03-07T11:38:53.334Z,82.18
2018-03-07T11:40:48.766Z,81.89
2018-03-07T11:41:48.735Z,82.08
2018-03-07T11:43:44.692Z,82.08
2018-03-07T11:44:44.695Z,82.65
2018-03-07T11:46:40.634Z,82.18
2018-03-07T11:47:40.634Z,81.98
2018-03-07T11:49:35.069Z,81.79
2018-03-07T11:50:35.587Z,81.74
2018-03-07T11:52:31.051Z,81.46
2018-03-07T11:53:31.038Z,81.36
2018-03-07T11:55:26.975Z,80.60
2018-03-07T11:56:27.481Z,80.88
2018-03-07T11:58:23.435Z,80.50
2018-03-07T11:59:22.893Z,79.93
2018-03-07T12:01:17.360Z,80.12
2018-03-07T12:02:17.841Z,80.12
2018-03-07T12:04:13.792Z,79.46
2018-03-07T12:05:13.280Z,79.64
2018-03-07T12:07:09.267Z,79.07
2018-03-07T12:08:09.227Z,78.41
2018-03-07T12:10:05.157Z,77.26
2018-03-07T12:11:05.146Z,77.36
2018-03-07T12:13:01.099Z,76.98
2018-03-07T12:14:01.084Z,77.17
2018-03-07T12:15:57.000Z,75.84
2018-03-07T12:16:57.034Z,75.74
2018-03-07T12:18:52.924Z,75.55
2018-03-07T12:19:52.925Z,75.84
2018-03-07T12:21:47.358Z,73.93
2018-03-07T12:22:47.354Z,73.07
2018-03-07T12:24:43.373Z,72.69
2018-03-07T12:25:43.827Z,73.26
2018-03-07T12:27:39.760Z,73.36
2018-03-07T12:28:39.279Z,72.41
2018-03-07T12:30:35.230Z,73.07
2018-03-07T12:31:35.197Z,71.73
2018-03-07T12:33:29.647Z,70.69
2018-03-07T12:34:29.627Z,70.69
2018-03-07T12:36:25.592Z,70.02
2018-03-07T12:37:26.105Z,69.93
2018-03-07T12:39:22.523Z,70.97
2018-03-07T12:40:21.511Z,69.74
2018-03-07T12:42:15.987Z,69.68
2018-03-07T12:43:15.963Z,69.54
2018-03-07T12:45:12.416Z,69.58
2018-03-07T12:46:11.903Z,69.77
2018-03-07T12:48:08.365Z,69.58
2018-03-07T12:49:07.799Z,69.10
2018-03-07T12:51:02.274Z,69.58
2018-03-07T12:52:00.801Z,68.24
2018-03-07T12:53:54.752Z,69.01
2018-03-07T12:54:54.246Z,68.53
2018-03-07T12:56:50.155Z,67.96
2018-03-07T12:57:50.711Z,68.44
2018-03-07T12:59:44.665Z,68.05
2018-03-07T13:00:44.598Z,68.34
2018-03-07T13:02:40.561Z,68.63
2018-03-07T13:03:40.548Z,68.24
2018-03-07T13:05:36.528Z,67.58
2018-03-07T13:06:36.515Z,67.68
2018-03-07T13:08:31.475Z,68.21
2018-03-07T13:09:31.880Z,68.72
2018-03-07T13:11:26.875Z,68.88
2018-03-07T13:12:26.834Z,68.44
2018-03-07T13:14:22.764Z,68.63
2018-03-07T13:15:22.785Z,67.83
2018-03-07T13:17:19.668Z,68.12
2018-03-07T13:18:19.241Z,68.24
2018-03-07T13:20:13.170Z,68.02
2018-03-07T13:21:13.136Z,67.96
2018-03-07T13:23:08.094Z,67.16
2018-03-07T13:24:07.586Z,66.97
2018-03-07T13:26:04.030Z,68.02
2018-03-07T13:27:03.528Z,67.74
2018-03-07T13:28:56.955Z,67.55
2018-03-07T13:29:57.495Z,68.21
2018-03-07T13:31:51.355Z,68.34
2018-03-07T13:32:51.367Z,68.15
2018-03-07T13:34:47.331Z,67.77
2018-03-07T13:35:47.817Z,68.05
2018-03-07T13:37:43.758Z,67.86
2018-03-07T13:38:43.225Z,68.15
2018-03-07T13:40:37.669Z,67.96
2018-03-07T13:41:37.664Z,68.05
2018-03-07T13:43:32.622Z,68.24
2018-03-07T13:44:32.625Z,68.69
2018-03-07T13:46:27.077Z,68.21
2018-03-07T13:47:26.560Z,67.93
2018-03-07T13:49:21.516Z,69.17
2018-03-07T13:50:20.975Z,69.17
2018-03-07T13:52:16.925Z,68.59
2018-03-07T13:53:17.441Z,68.69
2018-03-07T13:55:11.874Z,68.12
2018-03-07T13:56:11.364Z,68.78
2018-03-07T13:58:04.773Z,69.07
2018-03-07T13:59:04.765Z,68.21
2018-03-07T14:00:59.209Z,69.07
2018-03-07T14:01:59.213Z,68.78
2018-03-07T14:03:55.675Z,69.17
2018-03-07T14:04:55.147Z,68.78
2018-03-07T14:06:49.584Z,69.83
2018-03-07T14:07:49.581Z,69.35
2018-03-07T14:09:44.572Z,69.74
2018-03-07T14:10:44.041Z,68.88
2018-03-07T14:12:38.521Z,69.35
2018-03-07T14:13:38.494Z,69.35
2018-03-07T14:15:35.448Z,70.02
2018-03-07T14:16:34.958Z,69.45
2018-03-07T14:18:30.389Z,69.26
2018-03-07T14:19:30.345Z,69.45
2018-03-07T14:21:26.807Z,68.98
2018-03-07T14:22:26.300Z,68.78
2018-03-07T14:24:20.767Z,69.07
2018-03-07T14:25:20.738Z,69.07
2018-03-07T14:27:17.196Z,69.54
2018-03-07T14:28:17.633Z,69.64
2018-03-07T14:30:12.593Z,70.02
2018-03-07T14:31:12.599Z,69.54
2018-03-07T14:33:07.191Z,69.74
2018-03-07T14:34:07.181Z,69.74
2018-03-07T14:36:03.110Z,69.64
2018-03-07T14:37:03.643Z,69.74
2018-03-07T14:38:59.047Z,70.40
2018-03-07T14:39:59.039Z,70.78
2018-03-07T14:41:55.485Z,69.93
2018-03-07T14:42:54.970Z,69.83
2018-03-07T14:44:49.409Z,69.93
2018-03-07T14:45:49.393Z,70.50
2018-03-07T14:47:46.361Z,71.07
2018-03-07T14:50:08.493Z,71.26
2018-03-07T14:50:59.810Z,70.65
2018-03-07T14:52:57.258Z,70.37
2018-03-07T14:53:55.211Z,70.47
2018-03-07T14:55:49.679Z,70.37
2018-03-07T14:58:09.626Z,70.02
2018-03-07T14:59:09.370Z,69.74
2018-03-07T15:01:06.511Z,69.45
2018-03-07T15:02:06.533Z,69.93
2018-03-07T15:04:02.464Z,69.45
2018-03-07T15:05:02.972Z,68.88
2018-03-07T15:07:22.318Z,68.02
2018-03-07T15:08:22.348Z,68.21
2018-03-07T15:10:18.784Z,68.02
2018-03-07T15:11:19.773Z,68.21
2018-03-07T15:13:14.182Z,68.12
2018-03-07T15:14:14.193Z,68.12
2018-03-07T15:16:10.171Z,67.74
2018-03-07T15:17:10.646Z,67.74
2018-03-07T15:19:06.076Z,68.50
2018-03-07T15:20:06.060Z,68.02
2018-03-07T15:22:02.017Z,67.26
2018-03-07T15:24:18.240Z,68.30
2018-03-07T15:25:17.930Z,67.93
2018-03-07T15:27:14.897Z,68.02
2018-03-07T15:29:37.938Z,68.30
2018-03-07T15:30:33.971Z,68.21
2018-03-07T15:32:28.810Z,68.69
2018-03-07T15:33:28.298Z,68.21
2018-03-07T15:35:25.916Z,68.21
2018-03-07T15:36:24.261Z,68.12
2018-03-07T15:38:21.697Z,67.16
2018-03-07T15:39:20.191Z,67.26
2018-03-07T15:41:16.614Z,68.27
2018-03-07T15:42:16.110Z,67.80
2018-03-07T15:44:12.053Z,67.99
2018-03-07T15:45:12.062Z,68.27
2018-03-07T15:47:08.517Z,67.22
2018-03-07T15:48:08.002Z,67.61
2018-03-07T15:50:03.931Z,68.27
2018-03-07T15:51:03.926Z,68.18
2018-03-07T15:52:58.877Z,67.80
2018-03-07T15:53:58.357Z,67.51
2018-03-07T15:55:56.294Z,68.18
2018-03-07T15:56:56.301Z,67.95
2018-03-07T15:58:52.748Z,68.05
2018-03-07T15:59:52.215Z,68.05
2018-03-07T16:01:47.182Z,68.43
2018-03-07T16:02:46.732Z,68.43
2018-03-07T16:04:42.200Z,68.05
2018-03-07T16:05:41.698Z,68.33
2018-03-07T16:07:37.119Z,67.86
2018-03-07T16:08:37.112Z,68.43
2018-03-07T16:10:31.576Z,67.86
2018-03-07T16:11:31.549Z,68.24
2018-03-07T16:13:28.489Z,68.15
2018-03-07T16:14:27.487Z,68.15
2018-03-07T16:16:22.939Z,68.33
2018-03-07T16:17:21.934Z,68.52
2018-03-07T16:19:17.904Z,68.52
2018-03-07T16:20:18.393Z,68.43
2018-03-07T16:22:13.792Z,68.81
2018-03-07T16:23:14.377Z,68.81
2018-03-07T16:25:15.276Z,68.15
2018-03-07T16:26:09.782Z,68.43
2018-03-07T16:28:05.734Z,68.52
2018-03-07T16:29:06.736Z,68.52
2018-03-07T16:31:03.195Z,68.62
2018-03-07T16:32:01.714Z,68.71
2018-03-07T16:33:58.639Z,68.71
2018-03-07T16:34:58.126Z,68.62
2018-03-07T16:36:52.111Z,68.81
2018-03-07T16:37:52.598Z,68.71
2018-03-07T16:39:48.027Z,69.29
2018-03-07T16:40:47.988Z,69.19
2018-03-07T16:42:42.940Z,69.29
2018-03-07T16:43:42.935Z,69.48
2018-03-07T16:45:38.390Z,69.48
2018-03-07T16:46:38.358Z,69.48
2018-03-07T16:48:34.365Z,69.38
2018-03-07T16:51:30.198Z,70.14
2018-03-07T16:52:30.185Z,69.95
2018-03-07T16:54:24.625Z,70.14
2018-03-07T16:55:24.623Z,70.14
2018-03-07T16:57:19.098Z,69.95
2018-03-07T16:58:19.069Z,69.85
2018-03-07T17:00:13.517Z,70.33
2018-03-07T17:01:13.498Z,70.14
2018-03-07T17:03:09.956Z,69.57
2018-03-07T17:04:09.448Z,69.95
2018-03-07T17:06:07.522Z,69.92
2018-03-07T17:07:07.546Z,70.39
2018-03-07T17:09:01.958Z,70.49
2018-03-07T17:10:01.954Z,70.49
2018-03-07T17:11:58.908Z,70.77
2018-03-07T17:12:57.897Z,71.25
2018-03-07T17:14:53.850Z,71.15
2018-03-07T17:15:53.861Z,70.97
2018-03-07T17:18:02.380Z,71.44
2018-03-07T17:19:00.936Z,71.15
2018-03-07T17:21:56.095Z,71.82
2018-03-07T17:22:56.206Z,72.39
2018-03-07T17:25:41.311Z,71.72
2018-03-07T17:26:14.302Z,72.20
2018-03-07T17:28:20.500Z,71.63
2018-03-07T17:29:21.287Z,71.44
2018-03-07T17:31:14.981Z,72.01
2018-03-07T17:32:14.955Z,72.86
2018-03-07T17:34:10.863Z,72.01
2018-03-07T17:35:10.882Z,71.91
2018-03-07T17:37:06.250Z,72.20
2018-03-07T17:38:05.368Z,72.30
2018-03-07T17:40:03.336Z,73.15
2018-03-07T17:41:03.354Z,73.53
2018-03-07T17:42:58.302Z,75.30
2018-03-07T17:43:57.787Z,75.34
2018-03-07T17:45:53.815Z,76.06
2018-03-07T17:46:53.738Z,77.11
2018-03-07T17:48:49.647Z,78.63
2018-03-07T17:49:49.657Z,79.49
2018-03-07T17:51:46.082Z,80.05
2018-03-07T17:52:45.564Z,79.77
2018-03-07T17:54:41.504Z,81.01
2018-03-07T17:55:42.006Z,81.73
2018-03-07T17:57:35.916Z,82.29
2018-03-07T17:58:35.925Z,82.29
2018-03-07T18:00:32.873Z,82.68
2018-03-07T18:01:31.867Z,82.96
2018-03-07T18:03:28.819Z,83.91
2018-03-07T18:04:27.823Z,84.58
2018-03-07T18:06:24.768Z,84.77
2018-03-07T18:07:24.306Z,84.48
2018-03-07T18:09:19.689Z,84.67
2018-03-07T18:10:19.701Z,84.48
2018-03-07T18:12:15.079Z,85.15
2018-03-07T18:13:14.137Z,85.05
2018-03-07T18:15:10.587Z,85.62
2018-03-07T18:16:10.584Z,85.43
2018-03-07T18:18:06.500Z,85.34
2018-03-07T18:19:06.016Z,85.43
2018-03-07T18:21:02.958Z,85.43
2018-03-07T18:22:01.964Z,85.81
2018-03-07T18:23:56.365Z,85.43
2018-03-07T18:24:56.375Z,85.34
2018-03-07T18:26:52.330Z,85.24
2018-03-07T18:27:52.816Z,86.00
2018-03-07T18:29:48.769Z,85.43
2018-03-07T18:30:48.227Z,85.72
2018-03-07T18:32:46.280Z,85.72
2018-03-07T18:33:47.196Z,85.72
2018-03-07T18:35:40.692Z,85.68
2018-03-07T18:36:40.694Z,85.49
2018-03-07T18:38:37.165Z,86.05
2018-03-07T18:39:36.633Z,86.15
2018-03-07T18:41:32.543Z,86.34
2018-03-07T18:42:33.055Z,86.72
2018-03-07T18:44:28.989Z,86.15
2018-03-07T18:45:28.453Z,85.96
2018-03-07T18:47:25.849Z,85.58
2018-03-07T18:48:24.396Z,85.77
2018-03-07T18:50:20.876Z,84.44
2018-03-07T18:51:20.360Z,85.01
2018-03-07T18:53:17.277Z,85.30
2018-03-07T18:54:16.285Z,85.68
2018-03-07T18:56:13.730Z,85.58
2018-03-07T18:57:12.189Z,85.20
2018-03-07T18:59:08.169Z,85.86
2018-03-07T19:00:08.093Z,85.86